createdAt,value
2019-05-17T00:00:23.215Z,76.90
2019-05-17T00:02:57.155Z,77.04
2019-05-17T00:05:30.024Z,77.06
2019-05-17T00:08:02.795Z,77.15
2019-05-17T00:10:37.884Z,77.10
2019-05-17T00:13:17.523Z,77.02
2019-05-17T00:15:56.662Z,76.99
2019-05-17T00:18:29.580Z,77.14
2019-05-17T00:21:02.398Z,77.19
2019-05-17T00:23:37.503Z,77.12
2019-05-17T00:26:11.744Z,76.97
2019-05-17T00:28:46.781Z,76.85
2019-05-17T00:31:19.875Z,76.80
2019-05-17T00:33:53.415Z,76.81
2019-05-17T00:36:27.597Z,76.82
2019-05-17T00:39:00.997Z,76.91
2019-05-17T00:41:33.665Z,77.02
2019-05-17T00:44:06.996Z,77.09
2019-05-17T00:46:39.439Z,77.13
2019-05-17T00:49:11.999Z,77.12
2019-05-17T00:51:44.514Z,77.11
2019-05-17T00:54:17.616Z,77.13
2019-05-17T00:56:50.124Z,77.10
2019-05-17T00:59:22.736Z,77.05
2019-05-17T01:01:56.320Z,76.94
2019-05-17T01:04:29.731Z,76.79
2019-05-17T01:07:03.230Z,76.81
2019-05-17T01:09:36.615Z,76.83
2019-05-17T01:12:09.869Z,76.76
2019-05-17T01:14:42.576Z,76.87
2019-05-17T01:17:16.526Z,76.85
2019-05-17T01:19:53.000Z,76.82
2019-05-17T01:22:26.283Z,76.95
2019-05-17T01:24:58.857Z,77.11
2019-05-17T01:27:33.028Z,77.21
2019-05-17T01:30:07.376Z,77.25
2019-05-17T01:32:40.044Z,77.23
2019-05-17T01:35:12.589Z,77.42
2019-05-17T01:37:47.469Z,77.43
2019-05-17T01:40:20.197Z,77.49
2019-05-17T01:42:52.803Z,77.55
2019-05-17T01:45:26.931Z,77.64
2019-05-17T01:48:00.266Z,77.67
2019-05-17T01:50:32.797Z,77.73
2019-05-17T01:53:07.374Z,77.69
2019-05-17T01:55:40.414Z,77.71
2019-05-17T01:58:12.944Z,77.59
2019-05-17T02:00:46.619Z,77.56
2019-05-17T02:03:19.175Z,77.61
2019-05-17T02:05:51.687Z,77.68
2019-05-17T02:08:26.449Z,77.63
2019-05-17T02:11:00.363Z,77.71
2019-05-17T02:13:37.565Z,77.75
2019-05-17T02:16:12.103Z,77.87
2019-05-17T02:18:47.942Z,77.98
2019-05-17T02:21:23.326Z,77.98
2019-05-17T02:23:57.467Z,77.92
2019-05-17T02:26:31.088Z,77.83
2019-05-17T02:29:07.004Z,77.92
2019-05-17T02:31:43.252Z,77.89
2019-05-17T02:34:16.443Z,77.90
2019-05-17T02:36:48.973Z,77.75
2019-05-17T02:39:23.188Z,77.74
2019-05-17T02:41:56.825Z,77.78
2019-05-17T02:44:33.159Z,77.80
2019-05-17T02:47:06.484Z,77.96
2019-05-17T02:49:42.276Z,78.12
2019-05-17T02:52:15.063Z,78.21
2019-05-17T02:54:47.799Z,78.26
2019-05-17T02:57:23.179Z,78.25
2019-05-17T02:59:56.086Z,78.19
2019-05-17T03:02:28.704Z,78.27
2019-05-17T03:05:04.044Z,78.24
2019-05-17T03:07:36.883Z,78.29
2019-05-17T03:10:23.910Z,78.15
2019-05-17T03:13:04.112Z,78.12
2019-05-17T03:15:36.995Z,78.10
2019-05-17T03:18:09.559Z,78.07
2019-05-17T03:20:43.206Z,77.95
2019-05-17T03:23:15.969Z,77.89
2019-05-17T03:25:52.195Z,77.92
2019-05-17T03:28:25.777Z,77.99
2019-05-17T03:30:58.629Z,78.01
2019-05-17T03:33:36.087Z,78.06
2019-05-17T03:36:09.241Z,78.03
2019-05-17T03:38:43.166Z,77.98
2019-05-17T03:41:23.952Z,77.80
2019-05-17T03:44:03.231Z,77.81
2019-05-17T03:46:37.536Z,77.81
2019-05-17T03:49:13.117Z,77.85
2019-05-17T03:51:48.345Z,77.84
2019-05-17T03:54:32.477Z,77.83
2019-05-17T03:57:06.012Z,77.65
2019-05-17T03:59:38.532Z,77.46
2019-05-17T04:02:12.462Z,77.42
2019-05-17T04:04:45.146Z,77.25
2019-05-17T04:07:18.634Z,77.30
2019-05-17T04:09:53.253Z,77.09
2019-05-17T04:12:27.609Z,76.90
2019-05-17T04:15:03.256Z,76.74
2019-05-17T04:17:36.298Z,76.74
2019-05-17T04:20:08.880Z,76.63
2019-05-17T04:22:44.032Z,76.63
2019-05-17T04:25:17.341Z,76.63
2019-05-17T04:27:53.395Z,76.64
2019-05-17T04:30:26.163Z,76.65
2019-05-17T04:32:58.664Z,76.66
2019-05-17T04:35:35.373Z,76.61
2019-05-17T04:38:08.203Z,76.55
2019-05-17T04:40:43.236Z,76.63
2019-05-17T04:43:15.973Z,76.49
2019-05-17T04:45:53.213Z,76.42
2019-05-17T04:48:26.285Z,76.33
2019-05-17T04:50:58.846Z,76.37
2019-05-17T04:53:32.814Z,76.30
2019-05-17T04:56:05.851Z,76.24
2019-05-17T04:58:38.403Z,76.36
2019-05-17T05:01:13.267Z,76.45
2019-05-17T05:03:46.988Z,76.41
2019-05-17T05:06:19.671Z,76.40
2019-05-17T05:08:52.956Z,76.37
2019-05-17T05:11:25.596Z,76.39
2019-05-17T05:14:02.743Z,76.30
2019-05-17T05:16:35.949Z,76.11
2019-05-17T05:19:08.504Z,75.90
2019-05-17T05:21:42.609Z,76.25
2019-05-17T05:24:15.485Z,76.39
2019-05-17T05:26:48.090Z,76.44
2019-05-17T05:29:21.658Z,76.46
2019-05-17T05:31:55.153Z,76.41
2019-05-17T05:34:27.623Z,76.37
2019-05-17T05:37:02.105Z,76.31
2019-05-17T05:39:35.986Z,76.25
2019-05-17T05:42:13.963Z,76.23
2019-05-17T05:44:46.900Z,76.24
2019-05-17T05:47:22.152Z,76.10
2019-05-17T05:49:55.242Z,75.90
2019-05-17T05:52:28.105Z,75.79
2019-05-17T05:55:02.912Z,75.71
2019-05-17T05:57:35.916Z,75.58
2019-05-17T06:00:12.468Z,75.43
2019-05-17T06:02:54.095Z,75.30
2019-05-17T06:05:27.992Z,75.31
2019-05-17T06:08:02.828Z,75.12
2019-05-17T06:10:35.798Z,75.04
2019-05-17T06:13:09.853Z,74.98
2019-05-17T06:15:43.427Z,75.03
2019-05-17T06:18:16.031Z,74.96
2019-05-17T06:20:48.682Z,74.70
2019-05-17T06:23:23.466Z,74.49
2019-05-17T06:25:56.528Z,74.40
2019-05-17T06:28:29.039Z,74.29
2019-05-17T06:31:02.922Z,74.16
2019-05-17T06:33:35.568Z,73.90
2019-05-17T06:36:09.635Z,73.62
2019-05-17T06:38:42.440Z,73.50
2019-05-17T06:41:15.823Z,73.33
2019-05-17T06:43:48.347Z,73.01
2019-05-17T06:46:22.036Z,72.91
2019-05-17T06:48:54.794Z,72.99
2019-05-17T06:51:28.155Z,72.86
2019-05-17T06:54:01.903Z,72.81
2019-05-17T06:56:34.411Z,72.87
2019-05-17T06:59:06.873Z,72.73
2019-05-17T07:01:40.953Z,72.44
2019-05-17T07:04:14.626Z,72.20
2019-05-17T07:07:06.932Z,71.91
2019-05-17T07:09:49.704Z,71.40
2019-05-17T07:12:23.247Z,71.37
2019-05-17T07:14:58.385Z,71.20
2019-05-17T07:17:31.259Z,71.09
2019-05-17T07:20:04.216Z,71.29
2019-05-17T07:22:40.453Z,71.42
2019-05-17T07:25:14.080Z,71.63
2019-05-17T07:27:50.094Z,71.62
2019-05-17T07:30:26.529Z,71.39
2019-05-17T07:33:00.347Z,71.17
2019-05-17T07:35:33.173Z,70.98
2019-05-17T07:38:05.784Z,70.69
2019-05-17T07:40:39.935Z,70.63
2019-05-17T07:43:14.938Z,70.45
2019-05-17T07:45:49.643Z,70.17
2019-05-17T07:48:24.565Z,69.63
2019-05-17T07:50:59.258Z,69.62
2019-05-17T07:53:32.092Z,69.65
2019-05-17T07:56:10.109Z,69.58
2019-05-17T07:58:49.524Z,69.77
2019-05-17T08:01:23.055Z,69.87
2019-05-17T08:03:55.813Z,69.75
2019-05-17T08:06:30.573Z,69.55
2019-05-17T08:09:05.925Z,69.50
2019-05-17T08:11:44.150Z,68.93
2019-05-17T08:14:29.290Z,68.77
2019-05-17T08:17:03.139Z,68.66
2019-05-17T08:19:35.678Z,68.46
2019-05-17T08:22:09.838Z,68.29
2019-05-17T08:24:42.443Z,68.18
2019-05-17T08:27:15.121Z,67.92
2019-05-17T08:29:49.760Z,67.90
2019-05-17T08:32:22.451Z,67.98
2019-05-17T08:34:55.726Z,67.59
2019-05-17T08:37:30.388Z,67.58
2019-05-17T08:40:05.768Z,67.45
2019-05-17T08:42:41.360Z,67.22
2019-05-17T08:45:16.850Z,67.53
2019-05-17T08:47:56.883Z,67.51
2019-05-17T08:50:29.609Z,66.67
2019-05-17T08:53:05.633Z,65.74
2019-05-17T08:55:40.564Z,66.67
2019-05-17T08:58:14.274Z,67.01
2019-05-17T09:00:46.997Z,67.23
2019-05-17T09:03:20.201Z,67.40
2019-05-17T09:05:53.615Z,67.80
2019-05-17T09:08:29.839Z,67.85
2019-05-17T09:11:02.669Z,67.56
2019-05-17T09:13:36.468Z,67.79
2019-05-17T09:16:10.853Z,67.42
2019-05-17T09:18:44.223Z,66.99
2019-05-17T09:21:18.323Z,66.91
2019-05-17T09:23:50.841Z,66.65
2019-05-17T09:26:23.387Z,66.77
2019-05-17T09:28:56.759Z,66.96
2019-05-17T09:31:31.980Z,66.96
2019-05-17T09:34:04.587Z,67.40
2019-05-17T09:36:37.663Z,67.62
2019-05-17T09:39:16.221Z,67.58
2019-05-17T09:41:51.433Z,67.46
2019-05-17T09:44:24.837Z,66.83
2019-05-17T09:46:59.638Z,66.88
2019-05-17T09:49:34.079Z,66.47
2019-05-17T09:52:09.600Z,65.48
2019-05-17T09:54:45.472Z,65.53
2019-05-17T09:57:20.282Z,65.53
2019-05-17T09:59:56.004Z,65.76
2019-05-17T10:02:28.652Z,65.83
2019-05-17T10:05:04.431Z,65.96
2019-05-17T10:07:40.126Z,66.50
2019-05-17T10:10:13.403Z,66.73
2019-05-17T10:12:46.726Z,66.99
2019-05-17T10:15:20.702Z,67.28
2019-05-17T10:17:53.637Z,67.37
2019-05-17T10:20:29.193Z,67.74
2019-05-17T10:23:02.252Z,68.46
2019-05-17T10:25:35.537Z,69.86
2019-05-17T10:28:10.202Z,70.74
2019-05-17T10:30:44.412Z,71.60
2019-05-17T10:33:22.566Z,71.82
2019-05-17T10:35:55.919Z,72.21
2019-05-17T10:38:29.992Z,72.33
2019-05-17T10:41:02.708Z,72.66
2019-05-17T10:43:35.424Z,72.70
2019-05-17T10:46:10.323Z,72.49
2019-05-17T10:48:43.140Z,72.07
2019-05-17T10:51:20.052Z,71.76
2019-05-17T10:53:53.401Z,71.44
2019-05-17T10:56:26.018Z,71.11
2019-05-17T10:59:00.209Z,70.98
2019-05-17T11:01:33.358Z,70.95
2019-05-17T11:04:10.487Z,71.36
2019-05-17T11:06:43.321Z,71.68
2019-05-17T11:09:20.228Z,72.02
2019-05-17T11:11:54.693Z,72.29
2019-05-17T11:14:27.385Z,72.81
2019-05-17T11:17:03.211Z,73.38
2019-05-17T11:19:40.760Z,73.93
2019-05-17T11:22:14.436Z,74.17
2019-05-17T11:24:47.710Z,74.38
2019-05-17T11:27:22.044Z,74.64
2019-05-17T11:29:56.829Z,75.23
2019-05-17T11:32:29.579Z,75.67
2019-05-17T11:35:02.080Z,75.56
2019-05-17T11:37:36.024Z,75.22
2019-05-17T11:40:09.228Z,75.09
2019-05-17T11:42:45.448Z,75.35
2019-05-17T11:45:27.109Z,75.29
2019-05-17T11:48:02.273Z,75.14
2019-05-17T11:50:35.772Z,74.62
2019-05-17T11:53:12.220Z,74.22
2019-05-17T11:55:45.502Z,74.09
2019-05-17T11:58:19.101Z,73.69
2019-05-17T12:00:52.582Z,73.25
2019-05-17T12:03:26.586Z,72.88
2019-05-17T12:05:59.378Z,72.92
2019-05-17T12:08:34.498Z,72.67
2019-05-17T12:11:08.512Z,72.78
2019-05-17T12:13:43.677Z,73.35
2019-05-17T12:16:17.883Z,73.76
2019-05-17T12:18:53.450Z,73.75
2019-05-17T12:21:28.021Z,74.07
2019-05-17T12:24:01.992Z,74.45
2019-05-17T12:26:36.690Z,74.70
2019-05-17T12:29:11.214Z,74.84
2019-05-17T12:31:45.440Z,74.78
2019-05-17T12:34:18.801Z,74.65
2019-05-17T12:37:01.545Z,74.63
2019-05-17T12:39:35.005Z,74.47
2019-05-17T12:42:08.531Z,74.06
2019-05-17T12:44:41.529Z,73.91
2019-05-17T12:47:15.838Z,73.71
2019-05-17T12:49:51.272Z,73.62
2019-05-17T12:52:23.953Z,73.28
2019-05-17T12:54:56.714Z,73.21
2019-05-17T12:57:31.344Z,73.37
2019-05-17T13:00:06.228Z,73.15
2019-05-17T13:02:38.987Z,73.00
2019-05-17T13:05:12.725Z,72.96
2019-05-17T13:07:48.085Z,72.77
2019-05-17T13:10:22.830Z,72.64
2019-05-17T13:12:59.958Z,72.47
2019-05-17T13:15:36.682Z,71.69
2019-05-17T13:18:13.285Z,71.03
2019-05-17T13:20:48.264Z,70.77
2019-05-17T13:23:21.749Z,70.73
2019-05-17T13:25:59.611Z,71.10
2019-05-17T13:28:33.829Z,72.08
2019-05-17T13:31:08.345Z,72.11
2019-05-17T13:33:41.542Z,71.69
2019-05-17T13:36:15.194Z,71.48
2019-05-17T13:38:47.724Z,71.04
2019-05-17T13:41:20.428Z,70.84
2019-05-17T13:43:54.715Z,70.81
2019-05-17T13:46:36.603Z,70.32
2019-05-17T13:49:14.585Z,70.19
2019-05-17T13:51:49.164Z,70.11
2019-05-17T13:54:21.778Z,70.04
2019-05-17T13:56:58.177Z,69.72
2019-05-17T13:59:31.506Z,69.35
2019-05-17T14:02:04.077Z,68.86
2019-05-17T14:04:38.050Z,68.56
2019-05-17T14:07:13.421Z,67.66
2019-05-17T14:09:48.429Z,67.15
2019-05-17T14:12:21.624Z,67.07
2019-05-17T14:14:54.320Z,66.65
2019-05-17T14:17:27.075Z,66.48
2019-05-17T14:20:02.038Z,66.37
2019-05-17T14:22:36.111Z,66.01
2019-05-17T14:25:09.327Z,66.47
2019-05-17T14:27:42.532Z,63.81
2019-05-17T14:30:17.815Z,62.28
2019-05-17T14:32:50.448Z,62.01
2019-05-17T14:35:23.250Z,62.15
2019-05-17T14:37:56.114Z,60.67
2019-05-17T14:41:04.123Z,63.36
2019-05-17T14:43:38.070Z,63.12
2019-05-17T14:46:13.932Z,62.37
2019-05-17T14:48:48.881Z,61.97
2019-05-17T14:51:21.767Z,60.40
2019-05-17T14:53:56.886Z,59.77
2019-05-17T14:56:30.875Z,60.57
2019-05-17T14:59:04.505Z,59.52
2019-05-17T15:01:38.146Z,59.96
2019-05-17T15:04:13.073Z,60.14
2019-05-17T15:06:54.616Z,60.09
2019-05-17T15:09:35.748Z,59.91
2019-05-17T15:12:08.884Z,58.43
2019-05-17T15:14:52.240Z,58.19
2019-05-17T15:17:25.010Z,58.58
2019-05-17T15:19:59.748Z,60.20
2019-05-17T15:22:39.767Z,59.48
2019-05-17T15:25:13.855Z,58.83
2019-05-17T15:27:47.506Z,58.81
2019-05-17T15:30:20.272Z,58.54
2019-05-17T15:32:53.368Z,58.41
2019-05-17T15:35:27.277Z,57.86
2019-05-17T15:38:00.622Z,58.06
2019-05-17T15:40:35.810Z,57.73
2019-05-17T15:43:12.066Z,57.81
2019-05-17T15:45:44.702Z,57.64
2019-05-17T15:48:18.179Z,57.90
2019-05-17T15:50:50.719Z,57.42
2019-05-17T15:53:31.993Z,57.34
2019-05-17T15:56:06.606Z,57.59
2019-05-17T15:58:40.616Z,57.54
2019-05-17T16:01:14.956Z,57.58
2019-05-17T16:03:50.612Z,57.72
2019-05-17T16:06:24.712Z,58.00
2019-05-17T16:08:57.877Z,57.87
2019-05-17T16:11:32.011Z,57.62
2019-05-17T16:14:04.650Z,56.67
2019-05-17T16:16:40.278Z,56.11
2019-05-17T16:19:14.485Z,56.10
2019-05-17T16:21:48.546Z,56.24
2019-05-17T16:24:22.701Z,56.80
2019-05-17T16:26:58.005Z,57.00
2019-05-17T16:29:30.629Z,56.79
2019-05-17T16:32:03.283Z,56.76
2019-05-17T16:34:37.104Z,56.80
2019-05-17T16:37:12.865Z,57.21
2019-05-17T16:39:45.531Z,57.29
2019-05-17T16:42:19.562Z,57.38
2019-05-17T16:44:54.842Z,56.90
2019-05-17T16:47:29.437Z,56.78
2019-05-17T16:50:03.751Z,57.03
2019-05-17T16:52:41.601Z,56.89
2019-05-17T16:55:16.052Z,56.83
2019-05-17T16:57:48.698Z,56.44
2019-05-17T17:00:29.677Z,56.32
2019-05-17T17:03:02.267Z,56.57
2019-05-17T17:05:35.606Z,56.67
2019-05-17T17:08:08.294Z,57.02
2019-05-17T17:10:42.456Z,56.99
2019-05-17T17:13:16.417Z,56.42
2019-05-17T17:15:49.545Z,55.87
2019-05-17T17:18:25.176Z,55.57
2019-05-17T17:21:01.502Z,55.91
2019-05-17T17:23:35.354Z,55.65
2019-05-17T17:26:14.992Z,55.91
2019-05-17T17:28:50.632Z,56.35
2019-05-17T17:31:26.574Z,56.49
2019-05-17T17:34:01.275Z,56.55
2019-05-17T17:36:42.590Z,56.99
2019-05-17T17:39:16.941Z,56.92
2019-05-17T17:41:49.601Z,57.12
2019-05-17T17:44:25.196Z,57.46
2019-05-17T17:46:58.666Z,57.53
2019-05-17T17:49:31.864Z,57.76
2019-05-17T17:52:05.781Z,57.89
2019-05-17T17:54:41.288Z,57.71
2019-05-17T17:57:15.318Z,57.88
2019-05-17T17:59:48.555Z,58.14
2019-05-17T18:02:25.833Z,58.28
2019-05-17T18:04:59.927Z,58.41
2019-05-17T18:07:34.538Z,58.63
2019-05-17T18:10:08.325Z,58.93
2019-05-17T18:12:42.644Z,59.14
2019-05-17T18:15:36.173Z,59.22
2019-05-17T18:18:10.071Z,59.42
2019-05-17T18:20:44.567Z,59.63
2019-05-17T18:23:29.945Z,59.78
2019-05-17T18:26:05.728Z,59.78
2019-05-17T18:28:46.991Z,60.01
2019-05-17T18:31:19.899Z,60.33
2019-05-17T18:33:52.601Z,60.92
2019-05-17T18:36:27.082Z,61.22
2019-05-17T18:38:59.839Z,60.71
2019-05-17T18:41:37.267Z,60.50
2019-05-17T18:44:12.015Z,60.60
2019-05-17T18:46:45.721Z,60.54
2019-05-17T18:49:21.739Z,60.47
2019-05-17T18:51:56.205Z,61.20
2019-05-17T18:54:30.447Z,61.01
2019-05-17T18:57:05.127Z,61.08
2019-05-17T18:59:38.899Z,61.11
2019-05-17T19:02:12.197Z,61.00
2019-05-17T19:04:45.794Z,61.00
2019-05-17T19:07:23.327Z,61.13
2019-05-17T19:10:00.314Z,61.48
2019-05-17T19:12:36.690Z,61.46
2019-05-17T19:15:17.473Z,61.58
2019-05-17T19:17:53.446Z,61.57
2019-05-17T19:20:27.947Z,61.60
2019-05-17T19:23:03.558Z,61.98
2019-05-17T19:25:38.289Z,62.38
2019-05-17T19:28:12.302Z,62.85
2019-05-17T19:30:45.072Z,63.16
2019-05-17T19:33:21.790Z,63.34
2019-05-17T19:35:55.638Z,63.49
2019-05-17T19:38:31.394Z,63.39
2019-05-17T19:41:06.562Z,63.28
2019-05-17T19:43:40.083Z,63.14
2019-05-17T19:46:13.466Z,63.14
2019-05-17T19:48:47.027Z,63.40
2019-05-17T19:51:29.966Z,63.43
2019-05-17T19:54:06.356Z,63.99
2019-05-17T19:56:43.234Z,64.23
2019-05-17T19:59:16.507Z,64.67
2019-05-17T20:01:49.207Z,63.76
2019-05-17T20:04:23.584Z,63.10
2019-05-17T20:06:57.963Z,62.72
2019-05-17T20:09:31.594Z,62.88
2019-05-17T20:12:06.063Z,63.20
2019-05-17T20:14:42.467Z,63.46
2019-05-17T20:17:16.143Z,63.72
2019-05-17T20:19:49.387Z,63.99
2019-05-17T20:22:24.407Z,64.24
2019-05-17T20:24:58.667Z,64.46
2019-05-17T20:27:31.202Z,64.61
2019-05-17T20:30:06.943Z,64.61
2019-05-17T20:32:40.049Z,64.70
2019-05-17T20:35:12.630Z,64.82
2019-05-17T20:37:45.790Z,64.97
2019-05-17T20:40:21.171Z,65.14
2019-05-17T20:42:53.849Z,65.25
2019-05-17T20:45:33.095Z,65.39
2019-05-17T20:48:10.043Z,65.54
2019-05-17T20:50:44.436Z,65.82
2019-05-17T20:53:19.278Z,65.88
2019-05-17T20:55:52.377Z,65.93
2019-05-17T20:58:26.763Z,65.99
2019-05-17T21:01:00.891Z,66.12
2019-05-17T21:03:33.463Z,66.25
2019-05-17T21:06:06.070Z,66.33
2019-05-17T21:08:46.201Z,66.35
2019-05-17T21:11:19.187Z,66.40
2019-05-17T21:13:52.565Z,66.53
2019-05-17T21:16:26.499Z,66.72
2019-05-17T21:18:59.185Z,66.93
2019-05-17T21:21:31.939Z,67.04
2019-05-17T21:24:05.442Z,67.05
2019-05-17T21:26:38.075Z,67.20
2019-05-17T21:29:17.860Z,67.23
2019-05-17T21:32:04.145Z,67.20
2019-05-17T21:34:42.603Z,67.30
2019-05-17T21:37:16.252Z,67.42
2019-05-17T21:39:49.884Z,67.44
2019-05-17T21:42:22.659Z,67.61
2019-05-17T21:44:55.343Z,67.69
2019-05-17T21:47:31.768Z,67.74
2019-05-17T21:50:05.577Z,67.75
2019-05-17T21:52:40.335Z,67.96
2019-05-17T21:55:13.903Z,68.09
2019-05-17T21:57:48.116Z,68.28
2019-05-17T22:01:08.758Z,68.25
2019-05-17T22:03:43.445Z,68.40
2019-05-17T22:06:17.483Z,68.40
2019-05-17T22:08:51.670Z,68.58
2019-05-17T22:11:28.737Z,68.82
2019-05-17T22:14:01.410Z,69.02
2019-05-17T22:16:34.083Z,69.12
2019-05-17T22:19:07.570Z,69.25
2019-05-17T22:21:41.693Z,69.46
2019-05-17T22:24:15.824Z,69.71
2019-05-17T22:26:48.492Z,69.86
2019-05-17T22:29:22.009Z,69.91
2019-05-17T22:31:55.317Z,70.09
2019-05-17T22:34:29.326Z,70.28
2019-05-17T22:37:02.490Z,70.45
2019-05-17T22:39:35.081Z,70.58
2019-05-17T22:42:07.695Z,70.72
2019-05-17T22:44:42.929Z,70.88
2019-05-17T22:47:15.444Z,71.06
2019-05-17T22:49:47.987Z,71.27
2019-05-17T22:52:20.447Z,71.46
2019-05-17T22:54:52.944Z,71.63
2019-05-17T22:57:28.817Z,71.76
2019-05-17T23:00:03.131Z,71.86
2019-05-17T23:02:37.266Z,71.91
2019-05-17T23:05:11.254Z,71.99
2019-05-17T23:07:53.762Z,72.05
2019-05-17T23:10:35.177Z,72.13
2019-05-17T23:13:07.845Z,72.20
2019-05-17T23:15:49.518Z,72.29
2019-05-17T23:18:25.283Z,72.39
2019-05-17T23:21:01.564Z,72.51
2019-05-17T23:23:44.424Z,72.59
2019-05-17T23:26:18.156Z,72.71
2019-05-17T23:28:51.448Z,72.80
2019-05-17T23:31:35.898Z,72.94
2019-05-17T23:34:10.666Z,72.95
2019-05-17T23:36:44.868Z,73.07
2019-05-17T23:39:20.369Z,73.01
2019-05-17T23:41:54.485Z,73.10
2019-05-17T23:44:27.883Z,73.20
2019-05-17T23:47:07.082Z,73.30
2019-05-17T23:49:42.186Z,73.32
2019-05-17T23:52:14.635Z,73.34
2019-05-17T23:54:49.591Z,73.34
2019-05-17T23:57:22.064Z,73.31
2019-05-17T23:59:54.653Z,73.31
